Decoded Metar for HECA (CAIRO in EGYPT) (IATA:CAI) | Meteo·Mobile Aviation Weather
aviador You're here:

HECA Decoded Metar

CAIRO in EGYPT
Report Time2019-01-19 17:00:00
UTC Time2019-01-19 17:06:11
Flight Rules vfr VFR
Wind020° at 08 kt
W.Decomp.*RWY 05: 6.6 kt HW 4.5 kt LCW
W.Rank020° ranks 7
Current wind is below 020° avg. (8.4)
Visibility9999 m
Phenomena:N/A
Clouds:N/A
Expected CloudBase > 4,000 ft AGL from Temp-Dew spread
CeilingNone
Temp16°C (ISA +1)
Dew Point06°C (52% RH)
AAT12.2°C
QNH1021 hPa
Density Alt276 ft
Elevation243 ft
Report Wrong Elevation
Raw Report
METAR HECA 191700Z 02008KT CAVOK 16/06 Q1021 NOSIG=

Extra information for HECA:More info

Metar Taf Metar & Taf Last 4 Metars F.Rules Stats Wind Profile Meteogram Temp Stats Airport Information Weather charts Add Link Nearby VenuesMetar ALERT Operation Metar Decoded Social comments